createdAt,value
2018-11-27T00:00:26.730Z,7.53
2018-11-27T00:01:26.488Z,7.53
2018-11-27T00:02:26.500Z,7.53
2018-11-27T00:03:26.256Z,7.54
2018-11-27T00:04:26.275Z,7.53
2018-11-27T00:05:26.823Z,7.57
2018-11-27T00:06:26.575Z,7.56
2018-11-27T00:07:26.856Z,7.5
2018-11-27T00:08:26.599Z,7.51
2018-11-27T00:09:26.371Z,7.56
2018-11-27T00:10:26.643Z,7.56
2018-11-27T00:11:26.661Z,7.56
2018-11-27T00:12:26.418Z,7.6
2018-11-27T00:13:26.441Z,7.57
2018-11-27T00:14:26.969Z,7.54
2018-11-27T00:15:26.467Z,7.56
2018-11-27T00:16:26.483Z,7.54
2018-11-27T00:17:26.516Z,7.5
2018-11-27T00:18:26.779Z,7.48
2018-11-27T00:19:26.795Z,7.58
2018-11-27T00:20:26.807Z,7.56
2018-11-27T00:21:26.831Z,7.53
2018-11-27T00:22:26.858Z,7.61
2018-11-27T00:23:26.627Z,7.56
2018-11-27T00:24:26.894Z,7.56
2018-11-27T00:25:26.906Z,7.58
2018-11-27T00:26:26.913Z,7.51
2018-11-27T00:27:26.679Z,7.54
2018-11-27T00:28:26.953Z,7.57
2018-11-27T00:29:27.260Z,7.58
2018-11-27T00:30:27.244Z,7.5
2018-11-27T00:31:27.016Z,7.53
2018-11-27T00:32:27.027Z,7.57
2018-11-27T00:33:27.042Z,7.54
2018-11-27T00:34:27.116Z,7.54
2018-11-27T00:35:27.360Z,7.6
2018-11-27T00:36:27.102Z,7.58
2018-11-27T00:37:27.123Z,7.6
2018-11-27T00:38:27.398Z,7.54
2018-11-27T00:39:27.143Z,7.5
2018-11-27T00:40:27.177Z,7.56
2018-11-27T00:41:27.452Z,7.6
2018-11-27T00:42:27.208Z,7.56
2018-11-27T00:43:27.227Z,7.51
2018-11-27T00:44:27.238Z,7.53
2018-11-27T00:45:27.003Z,7.54
2018-11-27T00:46:27.286Z,7.57
2018-11-27T00:47:27.299Z,7.56
2018-11-27T00:48:27.053Z,7.53
2018-11-27T00:49:27.593Z,7.56
2018-11-27T00:50:27.086Z,7.58
2018-11-27T00:51:27.098Z,7.53
2018-11-27T00:52:27.639Z,7.51
2018-11-27T00:53:27.450Z,7.47
2018-11-27T00:54:27.417Z,7.51
2018-11-27T00:55:27.445Z,7.56
2018-11-27T00:56:27.460Z,7.53
2018-11-27T00:57:27.482Z,7.58
2018-11-27T00:58:27.226Z,7.56
2018-11-27T00:59:27.506Z,7.56
2018-11-27T01:00:27.527Z,7.56
2018-11-27T01:01:27.280Z,7.58
2018-11-27T01:02:27.306Z,7.54
2018-11-27T01:03:27.584Z,7.51
2018-11-27T01:04:27.330Z,7.51
2018-11-27T01:05:27.360Z,7.56
2018-11-27T01:06:27.897Z,7.5
2018-11-27T01:07:27.644Z,7.57
2018-11-27T01:08:27.680Z,7.51
2018-11-27T01:09:27.937Z,7.54
2018-11-27T01:10:27.952Z,7.56
2018-11-27T01:11:27.720Z,7.56
2018-11-27T01:12:27.731Z,7.54
2018-11-27T01:13:28.013Z,7.57
2018-11-27T01:14:27.512Z,7.5
2018-11-27T01:15:27.803Z,7.51
2018-11-27T01:16:27.815Z,7.53
2018-11-27T01:17:27.818Z,7.5
2018-11-27T01:18:27.577Z,7.51
2018-11-27T01:19:27.608Z,7.54
2018-11-27T01:20:27.885Z,7.56
2018-11-27T01:21:27.653Z,7.53
2018-11-27T01:22:28.178Z,7.53
2018-11-27T01:23:27.929Z,7.61
2018-11-27T01:24:27.691Z,7.53
2018-11-27T01:25:27.715Z,7.51
2018-11-27T01:26:28.000Z,7.56
2018-11-27T01:27:27.736Z,7.53
2018-11-27T01:28:28.286Z,7.53
2018-11-27T01:29:27.779Z,7.51
2018-11-27T01:30:28.050Z,7.54
2018-11-27T01:31:27.818Z,7.58
2018-11-27T01:32:28.084Z,7.54
2018-11-27T01:33:27.862Z,7.54
2018-11-27T01:34:27.864Z,7.48
2018-11-27T01:35:28.403Z,7.47
2018-11-27T01:36:28.152Z,7.58
2018-11-27T01:37:27.913Z,7.51
2018-11-27T01:38:27.945Z,7.56
2018-11-27T01:39:28.466Z,7.53
2018-11-27T01:40:27.970Z,7.51
2018-11-27T01:41:27.988Z,7.6
2018-11-27T01:42:28.262Z,7.51
2018-11-27T01:43:28.020Z,7.57
2018-11-27T01:44:28.307Z,7.51
2018-11-27T01:45:28.064Z,7.56
2018-11-27T01:46:28.328Z,7.58
2018-11-27T01:47:28.142Z,7.47
2018-11-27T01:48:28.388Z,7.57
2018-11-27T01:49:28.146Z,7.57
2018-11-27T01:50:28.144Z,7.51
2018-11-27T01:51:28.430Z,7.54
2018-11-27T01:52:28.187Z,7.6
2018-11-27T01:53:28.716Z,7.58
2018-11-27T01:54:28.226Z,7.53
2018-11-27T01:55:28.237Z,7.51
2018-11-27T01:56:28.510Z,7.56
2018-11-27T01:57:28.267Z,7.57
2018-11-27T01:58:28.580Z,7.51
2018-11-27T01:59:28.305Z,7.54
2018-11-27T02:00:28.848Z,7.51
2018-11-27T02:01:28.340Z,7.56
2018-11-27T02:02:28.612Z,7.57
2018-11-27T02:03:28.633Z,7.61
2018-11-27T02:04:28.673Z,7.54
2018-11-27T02:05:28.670Z,7.51
2018-11-27T02:06:28.697Z,7.56
2018-11-27T02:07:28.710Z,7.56
2018-11-27T02:08:28.724Z,7.51
2018-11-27T02:09:28.750Z,7.45
2018-11-27T02:10:29.015Z,7.51
2018-11-27T02:11:28.793Z,7.48
2018-11-27T02:12:28.802Z,7.51
2018-11-27T02:13:28.815Z,7.51
2018-11-27T02:14:28.573Z,7.54
2018-11-27T02:15:29.104Z,7.43
2018-11-27T02:16:28.865Z,7.53
2018-11-27T02:17:29.136Z,7.5
2018-11-27T02:18:28.680Z,7.51
2018-11-27T02:19:29.176Z,7.5
2018-11-27T02:20:28.944Z,7.48
2018-11-27T02:21:28.948Z,7.51
2018-11-27T02:22:28.977Z,7.51
2018-11-27T02:23:28.728Z,7.48
2018-11-27T02:24:29.003Z,7.47
2018-11-27T02:25:28.762Z,7.51
2018-11-27T02:26:29.038Z,7.5
2018-11-27T02:27:28.797Z,7.48
2018-11-27T02:28:29.379Z,7.5
2018-11-27T02:29:28.836Z,7.5
2018-11-27T02:30:29.119Z,7.42
2018-11-27T02:31:29.135Z,7.47
2018-11-27T02:32:28.900Z,7.54
2018-11-27T02:33:29.422Z,7.4
2018-11-27T02:34:28.922Z,7.42
2018-11-27T02:35:29.454Z,7.5
2018-11-27T02:36:29.476Z,7.38
2018-11-27T02:37:29.238Z,7.42
2018-11-27T02:38:29.510Z,7.48
2018-11-27T02:39:29.017Z,7.53
2018-11-27T02:40:29.350Z,7.42
2018-11-27T02:41:29.054Z,7.43
2018-11-27T02:42:29.589Z,7.5
2018-11-27T02:43:29.605Z,7.47
2018-11-27T02:44:29.361Z,7.45
2018-11-27T02:45:29.115Z,7.48
2018-11-27T02:46:29.144Z,7.53
2018-11-27T02:47:29.153Z,7.47
2018-11-27T02:48:29.691Z,7.4
2018-11-27T02:49:29.190Z,7.54
2018-11-27T02:50:29.734Z,7.5
2018-11-27T02:51:29.490Z,7.43
2018-11-27T02:52:29.241Z,7.5
2018-11-27T02:53:29.521Z,7.5
2018-11-27T02:54:29.547Z,7.43
2018-11-27T02:55:29.561Z,7.48
2018-11-27T02:56:29.315Z,7.5
2018-11-27T02:57:29.332Z,7.5
2018-11-27T02:58:29.350Z,7.4
2018-11-27T02:59:29.364Z,7.47
2018-11-27T03:00:29.675Z,7.43
2018-11-27T03:01:29.659Z,7.43
2018-11-27T03:02:29.942Z,7.48
2018-11-27T03:03:29.954Z,7.45
2018-11-27T03:04:29.465Z,7.42
2018-11-27T03:05:29.991Z,7.39
2018-11-27T03:06:29.750Z,7.39
2018-11-27T03:07:29.764Z,7.4
2018-11-27T03:08:29.781Z,7.43
2018-11-27T03:09:29.803Z,7.39
2018-11-27T03:10:29.855Z,7.39
2018-11-27T03:11:29.838Z,7.38
2018-11-27T03:12:29.856Z,7.38
2018-11-27T03:13:29.873Z,7.36
2018-11-27T03:14:29.633Z,7.4
2018-11-27T03:15:29.665Z,7.39
2018-11-27T03:16:29.926Z,7.4
2018-11-27T03:17:29.681Z,7.42
2018-11-27T03:18:29.961Z,7.42
2018-11-27T03:19:29.982Z,7.45
2018-11-27T03:20:29.741Z,7.4
2018-11-27T03:21:30.009Z,7.42
2018-11-27T03:22:29.769Z,7.38
2018-11-27T03:23:30.310Z,7.36
2018-11-27T03:24:30.321Z,7.4
2018-11-27T03:25:30.088Z,7.38
2018-11-27T03:26:30.106Z,7.38
2018-11-27T03:27:30.187Z,7.4
2018-11-27T03:28:30.142Z,7.43
2018-11-27T03:29:30.413Z,7.36
2018-11-27T03:30:30.261Z,7.38
2018-11-27T03:31:30.224Z,7.42
2018-11-27T03:32:30.506Z,7.39
2018-11-27T03:33:29.980Z,7.38
2018-11-27T03:34:30.245Z,7.4
2018-11-27T03:35:30.262Z,7.36
2018-11-27T03:36:30.021Z,7.39
2018-11-27T03:37:30.297Z,7.4
2018-11-27T03:38:30.316Z,7.39
2018-11-27T03:39:30.596Z,7.32
2018-11-27T03:40:30.371Z,7.33
2018-11-27T03:41:30.114Z,7.39
2018-11-27T03:42:30.659Z,7.32
2018-11-27T03:43:30.416Z,7.39
2018-11-27T03:44:30.424Z,7.32
2018-11-27T03:45:30.457Z,7.32
2018-11-27T03:46:30.473Z,7.4
2018-11-27T03:47:30.471Z,7.32
2018-11-27T03:48:30.239Z,7.39
2018-11-27T03:49:30.258Z,7.42
2018-11-27T03:50:30.267Z,7.33
2018-11-27T03:51:30.562Z,7.32
2018-11-27T03:52:30.619Z,7.29
2018-11-27T03:53:30.595Z,7.32
2018-11-27T03:54:30.605Z,7.32
2018-11-27T03:55:30.869Z,7.31
2018-11-27T03:56:30.632Z,7.32
2018-11-27T03:57:30.927Z,7.39
2018-11-27T03:58:30.713Z,7.25
2018-11-27T03:59:30.704Z,7.31
2018-11-27T04:00:30.741Z,7.32
2018-11-27T04:01:30.719Z,7.29
2018-11-27T04:02:30.487Z,7.32
2018-11-27T04:03:30.769Z,7.29
2018-11-27T04:04:30.786Z,7.29
2018-11-27T04:05:30.791Z,7.33
2018-11-27T04:06:30.556Z,7.32
2018-11-27T04:07:30.572Z,7.32
2018-11-27T04:08:30.851Z,7.29
2018-11-27T04:09:30.883Z,7.29
2018-11-27T04:10:30.622Z,7.33
2018-11-27T04:11:30.665Z,7.33
2018-11-27T04:12:30.660Z,7.32
2018-11-27T04:13:31.222Z,7.25
2018-11-27T04:14:30.949Z,7.28
2018-11-27T04:15:31.256Z,7.31
2018-11-27T04:16:30.987Z,7.29
2018-11-27T04:17:31.278Z,7.32
2018-11-27T04:18:31.023Z,7.32
2018-11-27T04:19:30.793Z,7.31
2018-11-27T04:20:32.288Z,7.31
2018-11-27T04:21:30.831Z,7.24
2018-11-27T04:22:31.098Z,7.28
2018-11-27T04:23:31.366Z,7.31
2018-11-27T04:24:30.866Z,7.25
2018-11-27T04:25:31.154Z,7.31
2018-11-27T04:26:31.175Z,7.32
2018-11-27T04:27:31.189Z,7.32
2018-11-27T04:28:31.197Z,7.31
2018-11-27T04:29:30.966Z,7.35
2018-11-27T04:30:30.987Z,7.32
2018-11-27T04:31:31.246Z,7.36
2018-11-27T04:32:31.268Z,7.33
2018-11-27T04:33:31.293Z,7.31
2018-11-27T04:34:31.043Z,7.25
2018-11-27T04:35:31.065Z,7.29
2018-11-27T04:36:31.358Z,7.24
2018-11-27T04:37:31.368Z,7.31
2018-11-27T04:38:31.113Z,7.33
2018-11-27T04:39:31.409Z,7.29
2018-11-27T04:40:31.146Z,7.28
2018-11-27T04:41:31.171Z,7.33
2018-11-27T04:42:31.184Z,7.35
2018-11-27T04:43:31.454Z,7.29
2018-11-27T04:44:31.477Z,7.32
2018-11-27T04:45:31.506Z,7.29
2018-11-27T04:46:31.269Z,7.28
2018-11-27T04:47:31.295Z,7.29
2018-11-27T04:48:31.579Z,7.28
2018-11-27T04:49:31.308Z,7.28
2018-11-27T04:50:31.846Z,7.29
2018-11-27T04:51:31.350Z,7.32
2018-11-27T04:52:31.633Z,7.28
2018-11-27T04:53:31.391Z,7.29
2018-11-27T04:54:31.396Z,7.32
2018-11-27T04:55:31.419Z,7.29
2018-11-27T04:56:31.692Z,7.29
2018-11-27T04:57:31.707Z,7.29
2018-11-27T04:58:31.726Z,7.31
2018-11-27T04:59:31.488Z,7.29
2018-11-27T05:00:31.766Z,7.33
2018-11-27T05:01:31.771Z,7.28
2018-11-27T05:02:32.837Z,7.28
2018-11-27T05:03:31.800Z,7.38
2018-11-27T05:04:31.575Z,7.32
2018-11-27T05:05:31.579Z,7.32
2018-11-27T05:06:32.137Z,7.25
2018-11-27T05:07:32.137Z,7.28
2018-11-27T05:08:32.152Z,7.29
2018-11-27T05:09:31.915Z,7.31
2018-11-27T05:10:31.665Z,7.32
2018-11-27T05:11:32.257Z,7.35
2018-11-27T05:12:32.235Z,7.25
2018-11-27T05:13:32.254Z,7.29
2018-11-27T05:14:31.741Z,7.24
2018-11-27T05:15:32.029Z,7.32
2018-11-27T05:16:32.029Z,7.31
2018-11-27T05:17:32.316Z,7.33
2018-11-27T05:18:32.075Z,7.32
2018-11-27T05:19:31.822Z,7.25
2018-11-27T05:20:31.844Z,7.32
2018-11-27T05:21:31.858Z,7.28
2018-11-27T05:22:32.136Z,7.24
2018-11-27T05:23:31.911Z,7.33
2018-11-27T05:24:31.919Z,7.32
2018-11-27T05:25:32.202Z,7.25
2018-11-27T05:26:32.215Z,7.31
2018-11-27T05:27:31.970Z,7.29
2018-11-27T05:28:31.993Z,7.32
2018-11-27T05:29:32.008Z,7.25
2018-11-27T05:30:33.354Z,7.29
2018-11-27T05:31:32.297Z,7.32
2018-11-27T05:32:32.570Z,7.33
2018-11-27T05:33:32.597Z,7.29
2018-11-27T05:34:32.100Z,7.25
2018-11-27T05:35:32.386Z,7.24
2018-11-27T05:36:32.397Z,7.36
2018-11-27T05:37:32.399Z,7.31
2018-11-27T05:38:32.684Z,7.21
2018-11-27T05:39:32.439Z,7.25
2018-11-27T05:40:32.206Z,7.24
2018-11-27T05:41:32.212Z,7.31
2018-11-27T05:42:32.229Z,7.28
2018-11-27T05:43:32.522Z,7.35
2018-11-27T05:44:32.791Z,7.18
2018-11-27T05:45:32.563Z,7.15
2018-11-27T05:46:32.306Z,7.32
2018-11-27T05:47:32.316Z,7.31
2018-11-27T05:48:32.601Z,7.28
2018-11-27T05:49:32.608Z,7.14
2018-11-27T05:50:32.631Z,7.28
2018-11-27T05:51:32.655Z,7.29
2018-11-27T05:52:32.423Z,7.17
2018-11-27T05:53:32.420Z,7.31
2018-11-27T05:54:32.707Z,7.28
2018-11-27T05:55:32.711Z,7.18
2018-11-27T05:56:32.471Z,7.23
2018-11-27T05:57:32.746Z,7.35
2018-11-27T05:58:32.513Z,7.35
2018-11-27T05:59:32.792Z,7.23
2018-11-27T06:00:33.065Z,7.28
2018-11-27T06:01:32.824Z,7.32
2018-11-27T06:02:32.842Z,7.25
2018-11-27T06:03:32.860Z,7.15
2018-11-27T06:04:32.868Z,7.18
2018-11-27T06:05:32.639Z,7.17
2018-11-27T06:06:32.655Z,7.15
2018-11-27T06:07:32.675Z,7.11
2018-11-27T06:08:32.963Z,7.11
2018-11-27T06:09:32.707Z,7.25
2018-11-27T06:10:32.994Z,7.21
2018-11-27T06:11:33.249Z,7.21
2018-11-27T06:12:33.014Z,7.17
2018-11-27T06:13:33.023Z,7.14
2018-11-27T06:14:33.295Z,7.14
2018-11-27T06:15:33.091Z,7.2
2018-11-27T06:16:33.080Z,7.15
2018-11-27T06:17:33.358Z,7.21
2018-11-27T06:18:32.860Z,7.21
2018-11-27T06:19:33.143Z,7.18
2018-11-27T06:20:32.903Z,7.2
2018-11-27T06:21:33.166Z,7.17
2018-11-27T06:22:32.937Z,7.2
2018-11-27T06:23:33.466Z,7.23
2018-11-27T06:24:32.969Z,7.15
2018-11-27T06:25:33.297Z,7.18
2018-11-27T06:26:33.253Z,7.18
2018-11-27T06:27:33.012Z,7.21
2018-11-27T06:28:33.294Z,7.17
2018-11-27T06:29:33.305Z,7.23
2018-11-27T06:30:33.328Z,7.18
2018-11-27T06:31:33.082Z,7.15
2018-11-27T06:32:33.111Z,7.18
2018-11-27T06:33:33.384Z,7.18
2018-11-27T06:34:33.390Z,7.15
2018-11-27T06:35:33.408Z,7.18
2018-11-27T06:36:33.166Z,7.11
2018-11-27T06:37:33.714Z,7.2
2018-11-27T06:38:33.463Z,7.18
2018-11-27T06:39:33.225Z,7.15
2018-11-27T06:40:33.500Z,7.21
2018-11-27T06:41:33.268Z,7.18
2018-11-27T06:42:33.536Z,7.17
2018-11-27T06:43:33.546Z,7.15
2018-11-27T06:44:33.836Z,7.15
2018-11-27T06:45:33.850Z,7.15
2018-11-27T06:46:33.608Z,7.15
2018-11-27T06:47:33.636Z,7.24
2018-11-27T06:48:33.648Z,7.2
2018-11-27T06:49:33.651Z,7.18
2018-11-27T06:50:33.689Z,7.2
2018-11-27T06:51:33.684Z,7.21
2018-11-27T06:52:33.458Z,7.21
2018-11-27T06:53:33.459Z,7.2
2018-11-27T06:54:33.747Z,7.21
2018-11-27T06:55:34.012Z,7.21
2018-11-27T06:56:34.040Z,7.17
2018-11-27T06:57:33.791Z,7.23
2018-11-27T06:58:34.086Z,7.24
2018-11-27T06:59:34.085Z,7.18
2018-11-27T07:00:34.107Z,7.2
2018-11-27T07:01:33.607Z,7.15
2018-11-27T07:02:33.625Z,7.21
2018-11-27T07:03:33.645Z,7.23
2018-11-27T07:04:33.928Z,7.2
2018-11-27T07:05:34.197Z,7.25
2018-11-27T07:06:33.943Z,7.2
2018-11-27T07:07:33.720Z,7.2
2018-11-27T07:08:33.994Z,7.21
2018-11-27T07:09:34.040Z,7.2
2018-11-27T07:10:34.281Z,7.17
2018-11-27T07:11:34.046Z,7.25
2018-11-27T07:12:33.837Z,7.2
2018-11-27T07:13:33.811Z,7.18
2018-11-27T07:14:34.359Z,7.23
2018-11-27T07:15:33.849Z,7.21
2018-11-27T07:16:33.860Z,7.14
2018-11-27T07:17:33.883Z,7.32
2018-11-27T07:18:34.174Z,7.21
2018-11-27T07:19:33.912Z,7.15
2018-11-27T07:20:34.238Z,7.15
2018-11-27T07:21:33.953Z,7.17
2018-11-27T07:22:33.962Z,7.18
2018-11-27T07:23:34.254Z,7.11
2018-11-27T07:24:34.275Z,7.18
2018-11-27T07:25:34.030Z,7.23
2018-11-27T07:26:34.564Z,7.15
2018-11-27T07:27:34.318Z,7.15
2018-11-27T07:28:34.381Z,7.14
2018-11-27T07:29:34.367Z,7.21
2018-11-27T07:30:34.383Z,7.2
2018-11-27T07:31:34.123Z,7.23
2018-11-27T07:32:34.667Z,7.18
2018-11-27T07:33:34.433Z,7.2
2018-11-27T07:34:34.457Z,7.17
2018-11-27T07:35:34.768Z,7.32
2018-11-27T07:36:34.468Z,7.31
2018-11-27T07:37:34.508Z,7.32
2018-11-27T07:38:34.511Z,7.28
2018-11-27T07:39:34.279Z,7.31
2018-11-27T07:40:34.282Z,7.21
2018-11-27T07:41:34.549Z,7.2
2018-11-27T07:42:34.844Z,7.17
2018-11-27T07:43:34.855Z,7.23
2018-11-27T07:44:34.631Z,7.29
2018-11-27T07:45:34.634Z,7.28
2018-11-27T07:46:34.399Z,7.25
2018-11-27T07:47:34.925Z,7.31
2018-11-27T07:48:34.690Z,7.25
2018-11-27T07:49:34.700Z,7.29
2018-11-27T07:50:34.715Z,7.29
2018-11-27T07:51:34.981Z,7.35
2018-11-27T07:52:34.743Z,7.25
2018-11-27T07:53:34.755Z,7.32
2018-11-27T07:54:34.777Z,7.31
2018-11-27T07:55:35.066Z,7.31
2018-11-27T07:56:35.069Z,7.29
2018-11-27T07:57:34.841Z,7.29
2018-11-27T07:58:35.117Z,7.33
2018-11-27T07:59:34.868Z,7.25
2018-11-27T08:00:34.626Z,7.35
2018-11-27T08:01:34.903Z,7.33
2018-11-27T08:02:34.920Z,7.31
2018-11-27T08:03:34.968Z,7.31
2018-11-27T08:04:34.947Z,7.29
2018-11-27T08:05:35.225Z,7.29
2018-11-27T08:06:34.989Z,7.29
2018-11-27T08:07:34.757Z,7.32
2018-11-27T08:08:35.031Z,7.29
2018-11-27T08:09:35.056Z,7.25
2018-11-27T08:10:35.053Z,7.29
2018-11-27T08:11:34.824Z,7.29
2018-11-27T08:12:34.835Z,7.29
2018-11-27T08:13:35.118Z,7.31
2018-11-27T08:14:34.869Z,7.39
2018-11-27T08:15:35.151Z,7.32
2018-11-27T08:16:35.428Z,7.28
2018-11-27T08:17:35.190Z,7.32
2018-11-27T08:18:34.936Z,7.39
2018-11-27T08:19:35.468Z,7.31
2018-11-27T08:20:35.231Z,7.4
2018-11-27T08:21:35.512Z,7.43
2018-11-27T08:22:35.263Z,7.43
2018-11-27T08:23:35.283Z,7.4
2018-11-27T08:24:35.564Z,7.43
2018-11-27T08:25:35.575Z,7.4
2018-11-27T08:26:35.328Z,7.42
2018-11-27T08:27:35.606Z,7.43
2018-11-27T08:28:35.116Z,7.4
2018-11-27T08:29:35.395Z,7.4
2018-11-27T08:30:35.416Z,7.4
2018-11-27T08:31:35.427Z,7.4
2018-11-27T08:32:35.193Z,7.42
2018-11-27T08:33:35.448Z,7.38
2018-11-27T08:34:35.482Z,7.35
2018-11-27T08:35:35.493Z,7.42
2018-11-27T08:36:35.508Z,7.42
2018-11-27T08:37:35.271Z,7.4
2018-11-27T08:38:35.561Z,7.51
2018-11-27T08:39:35.298Z,7.4
2018-11-27T08:40:35.329Z,7.4
2018-11-27T08:41:44.663Z,7.47
2018-11-27T08:42:35.610Z,7.54
2018-11-27T08:43:35.916Z,7.4
2018-11-27T08:44:35.394Z,7.43
2018-11-27T08:45:35.410Z,7.42
2018-11-27T08:46:35.681Z,7.47
2018-11-27T08:47:35.437Z,7.51
2018-11-27T08:48:35.714Z,7.51
2018-11-27T08:49:35.740Z,7.5
2018-11-27T08:50:35.757Z,7.5
2018-11-27T08:51:36.020Z,7.43
2018-11-27T08:52:36.876Z,7.42
2018-11-27T08:53:35.810Z,7.42
2018-11-27T08:54:35.830Z,7.43
2018-11-27T08:55:35.846Z,7.4
2018-11-27T08:56:35.860Z,7.47
2018-11-27T08:57:35.610Z,7.42
2018-11-27T08:58:36.237Z,7.43
2018-11-27T08:59:35.915Z,7.5
2018-11-27T09:00:35.922Z,7.51
2018-11-27T09:01:35.934Z,7.38
2018-11-27T09:02:35.699Z,7.43
2018-11-27T09:03:35.733Z,7.53
2018-11-27T09:04:35.997Z,7.48
2018-11-27T09:05:36.006Z,7.43
2018-11-27T09:06:36.303Z,7.47
2018-11-27T09:07:36.061Z,7.54
2018-11-27T09:08:36.058Z,7.53
2018-11-27T09:09:35.832Z,7.5
2018-11-27T09:10:35.854Z,7.45
2018-11-27T09:11:35.861Z,7.45
2018-11-27T09:12:36.140Z,7.5
2018-11-27T09:13:35.899Z,7.5
2018-11-27T09:14:35.906Z,7.5
2018-11-27T09:15:36.231Z,7.39
2018-11-27T09:16:36.206Z,7.47
2018-11-27T09:17:36.239Z,7.47
2018-11-27T09:18:36.490Z,7.51
2018-11-27T09:19:36.256Z,7.5
2018-11-27T09:20:36.531Z,7.47
2018-11-27T09:21:36.049Z,7.5
2018-11-27T09:22:36.318Z,7.56
2018-11-27T09:23:36.330Z,7.51
2018-11-27T09:24:36.357Z,7.53
2018-11-27T09:25:36.399Z,7.58
2018-11-27T09:26:36.382Z,7.45
2018-11-27T09:27:36.387Z,7.5
2018-11-27T09:28:36.406Z,7.56
2018-11-27T09:29:36.178Z,7.53
2018-11-27T09:30:36.461Z,7.58
2018-11-27T09:31:36.733Z,7.5
2018-11-27T09:32:36.478Z,7.58
2018-11-27T09:33:36.755Z,7.53
2018-11-27T09:34:36.780Z,7.54
2018-11-27T09:35:36.798Z,7.56
2018-11-27T09:36:36.565Z,7.54
2018-11-27T09:37:36.577Z,7.54
2018-11-27T09:38:36.841Z,7.61
2018-11-27T09:39:36.354Z,7.58
2018-11-27T09:40:36.366Z,7.61
2018-11-27T09:41:36.649Z,7.67
2018-11-27T09:42:36.650Z,7.69
2018-11-27T09:43:36.676Z,7.63
2018-11-27T09:44:36.945Z,7.67
2018-11-27T09:45:36.456Z,7.73
2018-11-27T09:46:36.471Z,7.73
2018-11-27T09:47:37.000Z,7.67
2018-11-27T09:48:37.030Z,7.63
2018-11-27T09:49:36.783Z,7.76
2018-11-27T09:50:36.802Z,7.82
2018-11-27T09:51:37.072Z,7.82
2018-11-27T09:52:37.087Z,7.88
2018-11-27T09:53:37.104Z,7.83
2018-11-27T09:54:36.615Z,7.82
2018-11-27T09:55:36.894Z,7.91
2018-11-27T09:56:36.903Z,7.88
2018-11-27T09:57:36.664Z,7.93
2018-11-27T09:58:36.941Z,7.94
2018-11-27T09:59:37.216Z,7.82
2018-11-27T10:00:36.724Z,7.95
2018-11-27T10:01:36.982Z,7.97
2018-11-27T10:02:37.013Z,8.09
2018-11-27T10:03:37.028Z,7.93
2018-11-27T10:04:37.296Z,8.1
2018-11-27T10:05:36.794Z,8.1
2018-11-27T10:06:37.078Z,8.13
2018-11-27T10:07:36.834Z,8.12
2018-11-27T10:08:36.851Z,8.15
2018-11-27T10:09:36.874Z,8.1
2018-11-27T10:10:37.410Z,8.19
2018-11-27T10:11:37.166Z,8.13
2018-11-27T10:12:37.440Z,8.1
2018-11-27T10:13:37.197Z,8.1
2018-11-27T10:14:37.221Z,8.16
2018-11-27T10:15:37.252Z,8.19
2018-11-27T10:16:37.512Z,8.16
2018-11-27T10:17:37.559Z,8.27
2018-11-27T10:18:37.030Z,8.24
2018-11-27T10:19:37.069Z,8.27
2018-11-27T10:20:37.328Z,8.27
2018-11-27T10:21:37.086Z,8.26
2018-11-27T10:22:37.379Z,8.26
2018-11-27T10:23:37.114Z,8.28
2018-11-27T10:24:37.392Z,8.3
2018-11-27T10:25:37.431Z,8.27
2018-11-27T10:26:37.175Z,8.31
2018-11-27T10:27:37.699Z,8.28
2018-11-27T10:28:37.216Z,8.37
2018-11-27T10:29:37.492Z,8.38
2018-11-27T10:30:37.251Z,8.27
2018-11-27T10:31:37.512Z,8.34
2018-11-27T10:32:37.545Z,8.36
2018-11-27T10:33:37.566Z,8.3
2018-11-27T10:34:37.842Z,8.34
2018-11-27T10:35:37.842Z,8.34
2018-11-27T10:36:37.352Z,8.31
2018-11-27T10:37:37.634Z,8.34
2018-11-27T10:38:37.385Z,8.3
2018-11-27T10:39:37.400Z,8.31
2018-11-27T10:40:37.415Z,8.33
2018-11-27T10:41:37.431Z,8.31
2018-11-27T10:42:37.729Z,8.31
2018-11-27T10:43:37.731Z,8.31
2018-11-27T10:44:37.748Z,8.28
2018-11-27T10:45:37.518Z,8.36
2018-11-27T10:46:38.040Z,8.34
2018-11-27T10:47:37.591Z,8.38
2018-11-27T10:48:37.818Z,8.38
2018-11-27T10:49:38.190Z,8.33
2018-11-27T10:50:37.599Z,8.34
2018-11-27T10:51:37.891Z,8.37
2018-11-27T10:52:38.146Z,8.34
2018-11-27T10:53:37.646Z,8.36
2018-11-27T10:54:37.931Z,8.37
2018-11-27T10:55:37.941Z,8.34
2018-11-27T10:56:37.695Z,8.36
2018-11-27T10:57:37.980Z,8.34
2018-11-27T10:58:37.764Z,8.38
2018-11-27T10:59:37.764Z,8.34
2018-11-27T11:00:37.781Z,8.36
2018-11-27T11:01:38.051Z,8.36
2018-11-27T11:02:38.346Z,8.36
2018-11-27T11:03:38.089Z,8.36
2018-11-27T11:04:38.102Z,8.34
2018-11-27T11:05:37.874Z,8.34
2018-11-27T11:06:38.135Z,8.31
2018-11-27T11:07:37.905Z,8.33
2018-11-27T11:08:38.167Z,8.34
2018-11-27T11:09:38.220Z,8.31
2018-11-27T11:10:37.955Z,8.33
2018-11-27T11:11:38.223Z,8.28
2018-11-27T11:12:37.981Z,8.34
2018-11-27T11:13:38.254Z,8.34
2018-11-27T11:14:38.287Z,8.3
2018-11-27T11:15:38.561Z,8.33
2018-11-27T11:16:38.569Z,8.34
2018-11-27T11:17:38.339Z,8.36
2018-11-27T11:18:38.610Z,8.37
2018-11-27T11:19:38.106Z,8.36
2018-11-27T11:20:38.385Z,8.36
2018-11-27T11:21:38.153Z,8.36
2018-11-27T11:22:38.674Z,8.38
2018-11-27T11:23:38.443Z,8.36
2018-11-27T11:24:38.458Z,8.27
2018-11-27T11:25:38.519Z,8.33
2018-11-27T11:26:38.243Z,8.31
2018-11-27T11:27:38.522Z,8.31
2018-11-27T11:28:38.265Z,8.31
2018-11-27T11:29:38.285Z,8.38
2018-11-27T11:30:38.575Z,8.33
2018-11-27T11:31:38.839Z,8.33
2018-11-27T11:32:38.603Z,8.28
2018-11-27T11:33:38.617Z,8.31
2018-11-27T11:34:38.379Z,8.3
2018-11-27T11:35:38.650Z,8.31
2018-11-27T11:36:38.413Z,8.28
2018-11-27T11:37:38.425Z,8.28
2018-11-27T11:38:38.974Z,8.27
2018-11-27T11:39:38.729Z,8.31
2018-11-27T11:40:38.743Z,8.24
2018-11-27T11:41:38.756Z,8.3
2018-11-27T11:42:38.826Z,8.31
2018-11-27T11:43:38.796Z,8.34
2018-11-27T11:44:38.806Z,8.27
2018-11-27T11:45:38.563Z,8.31
2018-11-27T11:46:38.842Z,8.34
2018-11-27T11:47:38.862Z,8.26
2018-11-27T11:48:39.165Z,8.33
2018-11-27T11:49:38.635Z,8.26
2018-11-27T11:50:39.172Z,8.27
2018-11-27T11:51:38.938Z,8.28
2018-11-27T11:52:45.251Z,8.28
2018-11-27T11:53:38.966Z,8.27
2018-11-27T11:54:38.981Z,8.33
2018-11-27T11:55:38.753Z,8.36
2018-11-27T11:56:38.762Z,8.36
2018-11-27T11:57:38.782Z,8.3
2018-11-27T11:58:38.813Z,8.46
2018-11-27T11:59:39.345Z,8.36
2018-11-27T12:00:39.107Z,8.44
2018-11-27T12:01:39.114Z,8.44
2018-11-27T12:02:38.869Z,8.41
2018-11-27T12:03:38.887Z,8.48
2018-11-27T12:04:39.187Z,8.46
2018-11-27T12:05:39.189Z,8.6
2018-11-27T12:06:39.462Z,8.56
2018-11-27T12:07:39.050Z,8.55
2018-11-27T12:08:39.492Z,8.55
2018-11-27T12:09:38.995Z,8.63
2018-11-27T12:10:39.053Z,8.58
2018-11-27T12:11:39.284Z,8.61
2018-11-27T12:12:39.315Z,8.63
2018-11-27T12:13:39.592Z,8.64
2018-11-27T12:14:39.098Z,8.64
2018-11-27T12:15:39.109Z,8.64
2018-11-27T12:16:39.647Z,8.69
2018-11-27T12:17:39.411Z,8.66
2018-11-27T12:18:39.418Z,8.7
2018-11-27T12:19:39.173Z,8.71
2018-11-27T12:20:39.446Z,8.66
2018-11-27T12:21:39.638Z,8.69
2018-11-27T12:22:39.486Z,8.64
2018-11-27T12:23:39.760Z,8.67
2018-11-27T12:24:39.543Z,8.67
2018-11-27T12:25:39.288Z,8.66
2018-11-27T12:26:39.829Z,8.56
2018-11-27T12:27:39.575Z,8.6
2018-11-27T12:28:39.335Z,8.56
2018-11-27T12:29:39.615Z,8.6
2018-11-27T12:30:39.411Z,8.63
2018-11-27T12:31:39.915Z,8.55
2018-11-27T12:32:39.423Z,8.6
2018-11-27T12:33:39.698Z,8.49
2018-11-27T12:34:39.696Z,8.48
2018-11-27T12:35:39.715Z,8.46
2018-11-27T12:36:39.996Z,8.49
2018-11-27T12:37:39.766Z,8.49
2018-11-27T12:38:39.526Z,8.46
2018-11-27T12:39:39.535Z,8.48
2018-11-27T12:40:39.813Z,8.41
2018-11-27T12:41:39.839Z,8.37
2018-11-27T12:42:40.109Z,8.37
2018-11-27T12:43:39.609Z,8.38
2018-11-27T12:44:39.887Z,8.36
2018-11-27T12:45:39.908Z,8.37
2018-11-27T12:46:39.665Z,8.38
2018-11-27T12:47:40.191Z,8.33
2018-11-27T12:48:39.947Z,8.34
2018-11-27T12:49:39.970Z,8.41
2018-11-27T12:50:39.993Z,8.38
2018-11-27T12:51:39.755Z,8.36
2018-11-27T12:52:40.018Z,8.31
2018-11-27T12:53:39.796Z,8.28
2018-11-27T12:54:39.838Z,8.38
2018-11-27T12:55:40.080Z,8.37
2018-11-27T12:56:43.657Z,8.33
2018-11-27T12:57:40.109Z,8.38
2018-11-27T12:58:39.878Z,8.36
2018-11-27T12:59:40.426Z,8.36
2018-11-27T13:00:40.163Z,8.36
2018-11-27T13:01:39.929Z,8.33
2018-11-27T13:02:40.199Z,8.37
2018-11-27T13:03:39.965Z,8.34
2018-11-27T13:04:39.980Z,8.3
2018-11-27T13:05:40.007Z,8.33
2018-11-27T13:06:40.271Z,8.34
2018-11-27T13:07:40.319Z,8.3
2018-11-27T13:08:40.306Z,8.3
2018-11-27T13:09:40.328Z,8.27
2018-11-27T13:10:40.353Z,8.28
2018-11-27T13:11:40.364Z,8.2
2018-11-27T13:12:40.392Z,8.26
2018-11-27T13:13:40.139Z,8.19
2018-11-27T13:14:40.681Z,8.27
2018-11-27T13:15:40.200Z,8.2
2018-11-27T13:16:40.457Z,8.18
2018-11-27T13:17:40.741Z,8.2
2018-11-27T13:18:40.499Z,8.18
2018-11-27T13:19:40.501Z,8.2
2018-11-27T13:20:40.518Z,8.18
2018-11-27T13:21:40.543Z,8.23